sensor_id;sensor_type;location;lat;lon;timestamp;temperature;humidity
67901;DHT22;54700;51.796;10.956;2023-10-13T00:01:20;13.20;99.90
67901;DHT22;54700;51.796;10.956;2023-10-13T00:03:47;13.30;99.90
67901;DHT22;54700;51.796;10.956;2023-10-13T00:06:14;13.30;99.90
67901;DHT22;54700;51.796;10.956;2023-10-13T00:08:41;13.30;99.90
67901;DHT22;54700;51.796;10.956;2023-10-13T00:11:11;13.30;99.90
67901;DHT22;54700;51.796;10.956;2023-10-13T00:13:40;13.40;99.90
67901;DHT22;54700;51.796;10.956;2023-10-13T00:16:08;13.40;99.90
67901;DHT22;54700;51.796;10.956;2023-10-13T00:18:41;13.40;99.90
67901;DHT22;54700;51.796;10.956;2023-10-13T00:21:09;13.40;99.90
67901;DHT22;54700;51.796;10.956;2023-10-13T00:23:41;13.50;99.90
67901;DHT22;54700;51.796;10.956;2023-10-13T00:26:17;13.50;99.90
67901;DHT22;54700;51.796;10.956;2023-10-13T00:28:50;13.50;99.90
67901;DHT22;54700;51.796;10.956;2023-10-13T00:31:24;13.50;99.90
67901;DHT22;54700;51.796;10.956;2023-10-13T00:33:57;13.50;99.90
67901;DHT22;54700;51.796;10.956;2023-10-13T00:36:32;13.60;99.90
67901;DHT22;54700;51.796;10.956;2023-10-13T00:38:59;13.70;99.90
67901;DHT22;54700;51.796;10.956;2023-10-13T00:41:26;13.80;99.90
67901;DHT22;54700;51.796;10.956;2023-10-13T00:44:17;13.90;99.90
67901;DHT22;54700;51.796;10.956;2023-10-13T00:46:50;14.10;99.90
67901;DHT22;54700;51.796;10.956;2023-10-13T00:49:22;14.20;99.90
67901;DHT22;54700;51.796;10.956;2023-10-13T00:51:50;14.20;99.90
67901;DHT22;54700;51.796;10.956;2023-10-13T00:54:16;14.30;99.90
67901;DHT22;54700;51.796;10.956;2023-10-13T00:56:52;14.40;99.90
67901;DHT22;54700;51.796;10.956;2023-10-13T00:59:24;14.50;99.90
67901;DHT22;54700;51.796;10.956;2023-10-13T01:01:52;14.50;99.90
67901;DHT22;54700;51.796;10.956;2023-10-13T01:04:20;14.50;99.90
67901;DHT22;54700;51.796;10.956;2023-10-13T01:06:50;14.50;99.90
67901;DHT22;54700;51.796;10.956;2023-10-13T01:09:16;14.50;99.90
67901;DHT22;54700;51.796;10.956;2023-10-13T01:11:43;14.50;99.90
67901;DHT22;54700;51.796;10.956;2023-10-13T01:14:11;14.50;99.90
67901;DHT22;54700;51.796;10.956;2023-10-13T01:16:41;14.50;99.90
67901;DHT22;54700;51.796;10.956;2023-10-13T01:19:09;14.50;99.90
67901;DHT22;54700;51.796;10.956;2023-10-13T01:21:37;14.50;99.90
67901;DHT22;54700;51.796;10.956;2023-10-13T01:24:07;14.60;99.90
67901;DHT22;54700;51.796;10.956;2023-10-13T01:26:35;14.60;99.90
67901;DHT22;54700;51.796;10.956;2023-10-13T01:29:04;14.60;99.90
67901;DHT22;54700;51.796;10.956;2023-10-13T01:31:39;14.60;99.90
67901;DHT22;54700;51.796;10.956;2023-10-13T01:34:11;14.70;99.90
67901;DHT22;54700;51.796;10.956;2023-10-13T01:36:40;14.70;99.90
67901;DHT22;54700;51.796;10.956;2023-10-13T01:39:08;14.70;99.90
67901;DHT22;54700;51.796;10.956;2023-10-13T01:41:41;14.70;99.90
67901;DHT22;54700;51.796;10.956;2023-10-13T01:44:08;14.70;99.90
67901;DHT22;54700;51.796;10.956;2023-10-13T01:46:36;14.60;99.90
67901;DHT22;54700;51.796;10.956;2023-10-13T01:49:02;14.60;99.90
67901;DHT22;54700;51.796;10.956;2023-10-13T01:51:29;14.60;99.90
67901;DHT22;54700;51.796;10.956;2023-10-13T01:53:55;14.50;99.90
67901;DHT22;54700;51.796;10.956;2023-10-13T01:56:24;14.50;99.90
67901;DHT22;54700;51.796;10.956;2023-10-13T01:58:53;14.40;99.90
67901;DHT22;54700;51.796;10.956;2023-10-13T02:01:20;14.40;99.90
67901;DHT22;54700;51.796;10.956;2023-10-13T02:03:52;14.30;99.90
67901;DHT22;54700;51.796;10.956;2023-10-13T02:06:27;14.30;99.90
67901;DHT22;54700;51.796;10.956;2023-10-13T02:08:58;14.30;99.90
67901;DHT22;54700;51.796;10.956;2023-10-13T02:11:36;14.30;99.90
67901;DHT22;54700;51.796;10.956;2023-10-13T02:14:02;14.30;99.90
67901;DHT22;54700;51.796;10.956;2023-10-13T02:16:29;14.30;99.90
67901;DHT22;54700;51.796;10.956;2023-10-13T02:18:56;14.30;99.90
67901;DHT22;54700;51.796;10.956;2023-10-13T02:21:29;14.30;99.90
67901;DHT22;54700;51.796;10.956;2023-10-13T02:23:57;14.30;99.90
67901;DHT22;54700;51.796;10.956;2023-10-13T02:26:26;14.30;99.90
67901;DHT22;54700;51.796;10.956;2023-10-13T02:28:57;14.30;99.90
67901;DHT22;54700;51.796;10.956;2023-10-13T02:31:26;14.30;99.90
67901;DHT22;54700;51.796;10.956;2023-10-13T02:33:52;14.40;99.90
67901;DHT22;54700;51.796;10.956;2023-10-13T02:36:20;14.40;99.90
67901;DHT22;54700;51.796;10.956;2023-10-13T02:38:48;14.40;99.90
67901;DHT22;54700;51.796;10.956;2023-10-13T02:41:17;14.40;99.90
67901;DHT22;54700;51.796;10.956;2023-10-13T02:43:45;14.40;99.90
67901;DHT22;54700;51.796;10.956;2023-10-13T02:46:13;14.40;99.90
67901;DHT22;54700;51.796;10.956;2023-10-13T02:48:41;14.40;99.90
67901;DHT22;54700;51.796;10.956;2023-10-13T02:51:12;14.50;99.90
67901;DHT22;54700;51.796;10.956;2023-10-13T02:53:41;14.40;99.90
67901;DHT22;54700;51.796;10.956;2023-10-13T02:56:12;14.50;99.90
67901;DHT22;54700;51.796;10.956;2023-10-13T02:58:39;14.50;99.90
67901;DHT22;54700;51.796;10.956;2023-10-13T03:01:11;14.50;99.90
67901;DHT22;54700;51.796;10.956;2023-10-13T03:03:45;14.50;99.90
67901;DHT22;54700;51.796;10.956;2023-10-13T03:06:15;14.50;99.90
67901;DHT22;54700;51.796;10.956;2023-10-13T03:08:42;14.50;99.90
67901;DHT22;54700;51.796;10.956;2023-10-13T03:11:09;14.50;99.90
67901;DHT22;54700;51.796;10.956;2023-10-13T03:13:36;14.50;99.90
67901;DHT22;54700;51.796;10.956;2023-10-13T03:16:13;14.50;99.90
67901;DHT22;54700;51.796;10.956;2023-10-13T03:18:47;14.50;99.90
67901;DHT22;54700;51.796;10.956;2023-10-13T03:21:21;14.50;99.90
67901;DHT22;54700;51.796;10.956;2023-10-13T03:23:58;14.50;99.90
67901;DHT22;54700;51.796;10.956;2023-10-13T03:26:32;14.50;99.90
67901;DHT22;54700;51.796;10.956;2023-10-13T03:29:03;14.50;99.90
67901;DHT22;54700;51.796;10.956;2023-10-13T03:31:33;14.40;99.90
67901;DHT22;54700;51.796;10.956;2023-10-13T03:34:05;14.40;99.90
67901;DHT22;54700;51.796;10.956;2023-10-13T03:36:39;14.30;99.90
67901;DHT22;54700;51.796;10.956;2023-10-13T03:39:22;14.30;99.90
67901;DHT22;54700;51.796;10.956;2023-10-13T03:41:54;14.20;99.90
67901;DHT22;54700;51.796;10.956;2023-10-13T03:44:21;14.30;99.90
67901;DHT22;54700;51.796;10.956;2023-10-13T03:46:48;14.30;99.90
67901;DHT22;54700;51.796;10.956;2023-10-13T03:49:20;14.30;99.90
67901;DHT22;54700;51.796;10.956;2023-10-13T03:51:50;14.40;99.90
67901;DHT22;54700;51.796;10.956;2023-10-13T03:54:20;14.30;99.90
67901;DHT22;54700;51.796;10.956;2023-10-13T03:56:46;14.40;99.90
67901;DHT22;54700;51.796;10.956;2023-10-13T03:59:17;14.40;99.90
67901;DHT22;54700;51.796;10.956;2023-10-13T04:01:44;14.40;99.90
67901;DHT22;54700;51.796;10.956;2023-10-13T04:04:13;14.40;99.90
67901;DHT22;54700;51.796;10.956;2023-10-13T04:06:42;14.40;99.90
67901;DHT22;54700;51.796;10.956;2023-10-13T04:09:22;14.40;99.90
67901;DHT22;54700;51.796;10.956;2023-10-13T04:12:16;14.40;99.90
67901;DHT22;54700;51.796;10.956;2023-10-13T04:15:12;14.40;99.90
67901;DHT22;54700;51.796;10.956;2023-10-13T04:17:45;14.50;99.90
67901;DHT22;54700;51.796;10.956;2023-10-13T04:20:13;14.50;99.90
67901;DHT22;54700;51.796;10.956;2023-10-13T04:22:54;14.50;99.90
67901;DHT22;54700;51.796;10.956;2023-10-13T04:25:38;14.50;99.90
67901;DHT22;54700;51.796;10.956;2023-10-13T04:28:18;14.50;99.90
67901;DHT22;54700;51.796;10.956;2023-10-13T04:30:58;14.60;99.90
67901;DHT22;54700;51.796;10.956;2023-10-13T04:33:37;14.60;99.90
67901;DHT22;54700;51.796;10.956;2023-10-13T04:36:16;14.70;99.90
67901;DHT22;54700;51.796;10.956;2023-10-13T04:39:03;14.70;99.90
67901;DHT22;54700;51.796;10.956;2023-10-13T04:41:35;14.80;99.90
67901;DHT22;54700;51.796;10.956;2023-10-13T04:44:05;14.80;99.90
67901;DHT22;54700;51.796;10.956;2023-10-13T04:46:46;14.90;99.90
67901;DHT22;54700;51.796;10.956;2023-10-13T04:49:33;15.00;99.90
67901;DHT22;54700;51.796;10.956;2023-10-13T04:52:17;15.00;99.90
67901;DHT22;54700;51.796;10.956;2023-10-13T04:55:06;15.00;99.90
67901;DHT22;54700;51.796;10.956;2023-10-13T04:57:44;15.00;99.90
67901;DHT22;54700;51.796;10.956;2023-10-13T05:00:19;15.10;99.90
67901;DHT22;54700;51.796;10.956;2023-10-13T05:03:06;15.20;99.90
67901;DHT22;54700;51.796;10.956;2023-10-13T05:05:53;15.30;99.90
67901;DHT22;54700;51.796;10.956;2023-10-13T05:08:56;15.20;99.90
67901;DHT22;54700;51.796;10.956;2023-10-13T05:11:42;15.20;99.90
67901;DHT22;54700;51.796;10.956;2023-10-13T05:14:26;15.20;99.90
67901;DHT22;54700;51.796;10.956;2023-10-13T05:17:10;15.30;99.90
67901;DHT22;54700;51.796;10.956;2023-10-13T05:19:55;15.30;99.90
67901;DHT22;54700;51.796;10.956;2023-10-13T05:22:40;15.30;99.90
67901;DHT22;54700;51.796;10.956;2023-10-13T05:25:24;15.40;99.90
67901;DHT22;54700;51.796;10.956;2023-10-13T05:28:10;15.30;99.90
67901;DHT22;54700;51.796;10.956;2023-10-13T05:30:58;15.30;99.90
67901;DHT22;54700;51.796;10.956;2023-10-13T05:33:43;15.30;99.90
67901;DHT22;54700;51.796;10.956;2023-10-13T05:36:27;15.30;99.90
67901;DHT22;54700;51.796;10.956;2023-10-13T05:39:11;15.30;99.90
67901;DHT22;54700;51.796;10.956;2023-10-13T05:41:56;15.30;99.90
67901;DHT22;54700;51.796;10.956;2023-10-13T05:44:42;15.30;99.90
67901;DHT22;54700;51.796;10.956;2023-10-13T05:47:25;15.30;99.90
67901;DHT22;54700;51.796;10.956;2023-10-13T05:50:09;15.30;99.90
67901;DHT22;54700;51.796;10.956;2023-10-13T05:52:54;15.30;99.90
67901;DHT22;54700;51.796;10.956;2023-10-13T05:55:39;15.30;99.90
67901;DHT22;54700;51.796;10.956;2023-10-13T05:58:40;15.40;99.90
67901;DHT22;54700;51.796;10.956;2023-10-13T06:01:27;15.40;99.90
67901;DHT22;54700;51.796;10.956;2023-10-13T06:04:12;15.40;99.90
67901;DHT22;54700;51.796;10.956;2023-10-13T06:06:56;15.40;99.90
67901;DHT22;54700;51.796;10.956;2023-10-13T06:09:52;15.40;99.90
67901;DHT22;54700;51.796;10.956;2023-10-13T06:12:36;15.40;99.90
67901;DHT22;54700;51.796;10.956;2023-10-13T06:15:21;15.50;99.90
67901;DHT22;54700;51.796;10.956;2023-10-13T06:18:07;15.50;99.90
67901;DHT22;54700;51.796;10.956;2023-10-13T06:20:54;15.60;99.90
67901;DHT22;54700;51.796;10.956;2023-10-13T06:23:38;15.60;99.90
67901;DHT22;54700;51.796;10.956;2023-10-13T06:26:22;15.60;99.90
67901;DHT22;54700;51.796;10.956;2023-10-13T06:29:07;15.70;99.90
67901;DHT22;54700;51.796;10.956;2023-10-13T06:31:35;15.70;99.90
67901;DHT22;54700;51.796;10.956;2023-10-13T06:37:04;15.80;99.90
67901;DHT22;54700;51.796;10.956;2023-10-13T06:39:50;15.80;99.90
67901;DHT22;54700;51.796;10.956;2023-10-13T06:42:25;15.90;99.90
67901;DHT22;54700;51.796;10.956;2023-10-13T06:45:08;15.90;99.90
67901;DHT22;54700;51.796;10.956;2023-10-13T06:47:42;15.90;99.90
67901;DHT22;54700;51.796;10.956;2023-10-13T06:50:11;16.00;99.90
67901;DHT22;54700;51.796;10.956;2023-10-13T06:52:42;15.90;99.90
67901;DHT22;54700;51.796;10.956;2023-10-13T06:55:13;16.00;99.90
67901;DHT22;54700;51.796;10.956;2023-10-13T06:57:54;16.00;99.90
67901;DHT22;54700;51.796;10.956;2023-10-13T07:00:44;16.00;99.90
67901;DHT22;54700;51.796;10.956;2023-10-13T07:03:22;16.10;99.90
67901;DHT22;54700;51.796;10.956;2023-10-13T07:06:05;16.10;99.90
67901;DHT22;54700;51.796;10.956;2023-10-13T07:08:46;16.10;99.90
67901;DHT22;54700;51.796;10.956;2023-10-13T07:11:18;16.10;99.90
67901;DHT22;54700;51.796;10.956;2023-10-13T07:14:00;16.10;99.90
67901;DHT22;54700;51.796;10.956;2023-10-13T07:16:35;16.20;99.90
67901;DHT22;54700;51.796;10.956;2023-10-13T07:19:24;16.20;99.90
67901;DHT22;54700;51.796;10.956;2023-10-13T07:21:55;16.20;99.90
67901;DHT22;54700;51.796;10.956;2023-10-13T07:24:25;16.20;99.90
67901;DHT22;54700;51.796;10.956;2023-10-13T07:26:57;16.30;99.90
67901;DHT22;54700;51.796;10.956;2023-10-13T07:29:28;16.30;99.90
67901;DHT22;54700;51.796;10.956;2023-10-13T07:31:59;16.30;99.90
67901;DHT22;54700;51.796;10.956;2023-10-13T07:34:28;16.30;99.90
67901;DHT22;54700;51.796;10.956;2023-10-13T07:36:59;16.40;99.90
67901;DHT22;54700;51.796;10.956;2023-10-13T07:39:29;16.40;99.90
67901;DHT22;54700;51.796;10.956;2023-10-13T07:42:08;16.50;99.90
67901;DHT22;54700;51.796;10.956;2023-10-13T07:44:56;16.50;99.90
67901;DHT22;54700;51.796;10.956;2023-10-13T07:47:24;16.50;99.90
67901;DHT22;54700;51.796;10.956;2023-10-13T07:49:58;16.60;99.90
67901;DHT22;54700;51.796;10.956;2023-10-13T07:52:27;16.70;99.90
67901;DHT22;54700;51.796;10.956;2023-10-13T07:55:02;16.70;99.90
67901;DHT22;54700;51.796;10.956;2023-10-13T07:57:45;16.70;99.90
67901;DHT22;54700;51.796;10.956;2023-10-13T08:00:27;16.80;99.90
67901;DHT22;54700;51.796;10.956;2023-10-13T08:03:12;16.90;99.90
67901;DHT22;54700;51.796;10.956;2023-10-13T08:05:57;16.90;99.90
67901;DHT22;54700;51.796;10.956;2023-10-13T08:08:31;16.90;99.90
67901;DHT22;54700;51.796;10.956;2023-10-13T08:11:04;16.90;99.90
67901;DHT22;54700;51.796;10.956;2023-10-13T08:13:37;16.90;99.90
67901;DHT22;54700;51.796;10.956;2023-10-13T08:16:11;16.90;99.90
67901;DHT22;54700;51.796;10.956;2023-10-13T08:18:39;16.90;99.90
67901;DHT22;54700;51.796;10.956;2023-10-13T08:21:08;16.90;99.90
67901;DHT22;54700;51.796;10.956;2023-10-13T08:23:43;16.90;99.90
67901;DHT22;54700;51.796;10.956;2023-10-13T08:26:33;16.90;99.90
67901;DHT22;54700;51.796;10.956;2023-10-13T08:29:20;16.80;99.90
67901;DHT22;54700;51.796;10.956;2023-10-13T08:32:04;16.80;99.90
67901;DHT22;54700;51.796;10.956;2023-10-13T08:34:46;16.80;99.90
67901;DHT22;54700;51.796;10.956;2023-10-13T08:37:35;16.90;99.90
67901;DHT22;54700;51.796;10.956;2023-10-13T08:40:23;16.90;99.90
67901;DHT22;54700;51.796;10.956;2023-10-13T08:43:08;16.90;99.90
67901;DHT22;54700;51.796;10.956;2023-10-13T08:45:43;16.90;99.90
67901;DHT22;54700;51.796;10.956;2023-10-13T08:48:25;16.90;99.90
67901;DHT22;54700;51.796;10.956;2023-10-13T08:51:00;17.00;99.90
67901;DHT22;54700;51.796;10.956;2023-10-13T08:53:36;17.00;99.90
67901;DHT22;54700;51.796;10.956;2023-10-13T08:56:19;17.00;99.90
67901;DHT22;54700;51.796;10.956;2023-10-13T08:59:01;17.00;99.90
67901;DHT22;54700;51.796;10.956;2023-10-13T09:01:32;17.10;99.90
67901;DHT22;54700;51.796;10.956;2023-10-13T09:04:04;17.10;99.90
67901;DHT22;54700;51.796;10.956;2023-10-13T09:06:53;17.10;99.90
67901;DHT22;54700;51.796;10.956;2023-10-13T09:09:43;17.10;99.90
67901;DHT22;54700;51.796;10.956;2023-10-13T09:12:39;17.10;99.90
67901;DHT22;54700;51.796;10.956;2023-10-13T09:15:30;17.20;99.90
67901;DHT22;54700;51.796;10.956;2023-10-13T09:18:24;17.20;99.90
67901;DHT22;54700;51.796;10.956;2023-10-13T09:21:12;17.30;99.90
67901;DHT22;54700;51.796;10.956;2023-10-13T09:24:09;17.40;99.90
67901;DHT22;54700;51.796;10.956;2023-10-13T09:26:57;17.50;99.90
67901;DHT22;54700;51.796;10.956;2023-10-13T09:29:28;17.50;99.90
67901;DHT22;54700;51.796;10.956;2023-10-13T09:32:01;17.60;99.90
67901;DHT22;54700;51.796;10.956;2023-10-13T09:34:37;17.60;99.90
67901;DHT22;54700;51.796;10.956;2023-10-13T09:37:15;17.60;99.90
67901;DHT22;54700;51.796;10.956;2023-10-13T09:40:14;17.60;99.90
67901;DHT22;54700;51.796;10.956;2023-10-13T09:43:00;17.70;99.90
67901;DHT22;54700;51.796;10.956;2023-10-13T09:48:49;17.80;99.90
67901;DHT22;54700;51.796;10.956;2023-10-13T09:51:35;17.90;99.90
67901;DHT22;54700;51.796;10.956;2023-10-13T09:54:08;18.00;99.90
67901;DHT22;54700;51.796;10.956;2023-10-13T09:56:54;18.10;99.90
67901;DHT22;54700;51.796;10.956;2023-10-13T10:00:00;18.20;99.90
67901;DHT22;54700;51.796;10.956;2023-10-13T10:07:06;18.20;99.90
67901;DHT22;54700;51.796;10.956;2023-10-13T10:09:55;18.20;99.90
67901;DHT22;54700;51.796;10.956;2023-10-13T10:12:38;18.20;99.90
67901;DHT22;54700;51.796;10.956;2023-10-13T10:15:59;18.30;99.90
67901;DHT22;54700;51.796;10.956;2023-10-13T10:18:58;18.30;99.90
67901;DHT22;54700;51.796;10.956;2023-10-13T10:21:38;18.40;99.90
67901;DHT22;54700;51.796;10.956;2023-10-13T10:24:23;18.40;99.90
67901;DHT22;54700;51.796;10.956;2023-10-13T10:27:23;18.50;99.90
67901;DHT22;54700;51.796;10.956;2023-10-13T10:30:01;18.60;99.90
67901;DHT22;54700;51.796;10.956;2023-10-13T10:32:46;18.60;99.20
67901;DHT22;54700;51.796;10.956;2023-10-13T10:35:38;18.70;99.20
67901;DHT22;54700;51.796;10.956;2023-10-13T10:38:09;18.80;99.80
67901;DHT22;54700;51.796;10.956;2023-10-13T10:40:54;18.80;98.60
67901;DHT22;54700;51.796;10.956;2023-10-13T10:43:40;18.90;98.10
67901;DHT22;54700;51.796;10.956;2023-10-13T10:46:28;18.90;98.70
67901;DHT22;54700;51.796;10.956;2023-10-13T10:49:08;19.00;98.40
67901;DHT22;54700;51.796;10.956;2023-10-13T10:51:46;19.00;97.40
67901;DHT22;54700;51.796;10.956;2023-10-13T10:54:17;19.10;97.20
67901;DHT22;54700;51.796;10.956;2023-10-13T10:56:47;19.10;98.30
67901;DHT22;54700;51.796;10.956;2023-10-13T10:59:18;19.20;97.10
67901;DHT22;54700;51.796;10.956;2023-10-13T11:01:47;19.20;97.20
67901;DHT22;54700;51.796;10.956;2023-10-13T11:04:16;19.20;96.30
67901;DHT22;54700;51.796;10.956;2023-10-13T11:06:50;19.20;97.30
67901;DHT22;54700;51.796;10.956;2023-10-13T11:09:23;19.20;97.10
67901;DHT22;54700;51.796;10.956;2023-10-13T11:12:07;19.20;96.40
67901;DHT22;54700;51.796;10.956;2023-10-13T11:14:40;19.30;96.10
67901;DHT22;54700;51.796;10.956;2023-10-13T11:17:08;19.40;96.10
67901;DHT22;54700;51.796;10.956;2023-10-13T11:19:47;19.50;95.90
67901;DHT22;54700;51.796;10.956;2023-10-13T11:22:16;19.60;95.80
67901;DHT22;54700;51.796;10.956;2023-10-13T11:24:57;19.70;95.00
67901;DHT22;54700;51.796;10.956;2023-10-13T11:27:36;19.90;94.20
67901;DHT22;54700;51.796;10.956;2023-10-13T11:30:21;20.00;94.50
67901;DHT22;54700;51.796;10.956;2023-10-13T11:32:59;20.20;93.90
67901;DHT22;54700;51.796;10.956;2023-10-13T11:35:31;20.30;93.70
67901;DHT22;54700;51.796;10.956;2023-10-13T11:38:12;20.40;93.60
67901;DHT22;54700;51.796;10.956;2023-10-13T11:40:52;20.50;92.40
67901;DHT22;54700;51.796;10.956;2023-10-13T11:43:41;20.50;91.40
67901;DHT22;54700;51.796;10.956;2023-10-13T11:46:32;20.60;92.30
67901;DHT22;54700;51.796;10.956;2023-10-13T11:49:22;20.60;91.50
67901;DHT22;54700;51.796;10.956;2023-10-13T11:52:03;20.60;91.50
67901;DHT22;54700;51.796;10.956;2023-10-13T12:05:06;20.50;90.80
67901;DHT22;54700;51.796;10.956;2023-10-13T12:07:52;20.60;90.80
67901;DHT22;54700;51.796;10.956;2023-10-13T12:10:30;20.60;91.00
67901;DHT22;54700;51.796;10.956;2023-10-13T12:13:04;20.60;90.70
67901;DHT22;54700;51.796;10.956;2023-10-13T12:15:36;20.60;89.80
67901;DHT22;54700;51.796;10.956;2023-10-13T12:18:14;20.60;89.60
67901;DHT22;54700;51.796;10.956;2023-10-13T12:20:50;20.70;89.20
67901;DHT22;54700;51.796;10.956;2023-10-13T12:23:27;20.70;88.00
67901;DHT22;54700;51.796;10.956;2023-10-13T12:25:58;20.70;87.80
67901;DHT22;54700;51.796;10.956;2023-10-13T12:28:31;20.70;87.10
67901;DHT22;54700;51.796;10.956;2023-10-13T12:31:05;20.70;87.80
67901;DHT22;54700;51.796;10.956;2023-10-13T12:33:36;20.80;86.40
67901;DHT22;54700;51.796;10.956;2023-10-13T12:36:07;20.90;85.10
67901;DHT22;54700;51.796;10.956;2023-10-13T12:38:56;20.90;84.20
67901;DHT22;54700;51.796;10.956;2023-10-13T12:41:40;21.00;84.00
67901;DHT22;54700;51.796;10.956;2023-10-13T12:44:27;21.00;84.00
67901;DHT22;54700;51.796;10.956;2023-10-13T12:47:13;21.00;84.00
67901;DHT22;54700;51.796;10.956;2023-10-13T12:50:00;21.00;84.00
67901;DHT22;54700;51.796;10.956;2023-10-13T12:52:41;21.00;83.30
67901;DHT22;54700;51.796;10.956;2023-10-13T12:55:10;21.00;82.90
67901;DHT22;54700;51.796;10.956;2023-10-13T12:57:38;21.00;83.00
67901;DHT22;54700;51.796;10.956;2023-10-13T13:00:11;21.00;83.10
67901;DHT22;54700;51.796;10.956;2023-10-13T13:02:51;21.00;83.80
67901;DHT22;54700;51.796;10.956;2023-10-13T13:05:21;21.00;83.80
67901;DHT22;54700;51.796;10.956;2023-10-13T13:07:55;21.00;82.90
67901;DHT22;54700;51.796;10.956;2023-10-13T13:10:22;21.00;82.70
67901;DHT22;54700;51.796;10.956;2023-10-13T13:13:04;21.00;83.10
67901;DHT22;54700;51.796;10.956;2023-10-13T13:15:31;21.00;81.70
67901;DHT22;54700;51.796;10.956;2023-10-13T13:17:58;21.00;83.10
67901;DHT22;54700;51.796;10.956;2023-10-13T13:20:35;21.00;83.20
67901;DHT22;54700;51.796;10.956;2023-10-13T13:23:11;21.00;82.50
67901;DHT22;54700;51.796;10.956;2023-10-13T13:25:38;21.00;82.60
67901;DHT22;54700;51.796;10.956;2023-10-13T13:28:08;21.10;83.50
67901;DHT22;54700;51.796;10.956;2023-10-13T13:30:36;21.10;82.70
67901;DHT22;54700;51.796;10.956;2023-10-13T13:33:04;21.10;82.10
67901;DHT22;54700;51.796;10.956;2023-10-13T13:35:36;21.20;81.50
67901;DHT22;54700;51.796;10.956;2023-10-13T13:38:03;21.20;82.10
67901;DHT22;54700;51.796;10.956;2023-10-13T13:40:38;21.30;82.50
67901;DHT22;54700;51.796;10.956;2023-10-13T13:43:05;21.40;81.30
67901;DHT22;54700;51.796;10.956;2023-10-13T13:45:33;21.50;81.40
67901;DHT22;54700;51.796;10.956;2023-10-13T13:48:00;21.60;80.20
67901;DHT22;54700;51.796;10.956;2023-10-13T13:50:33;21.60;80.50
67901;DHT22;54700;51.796;10.956;2023-10-13T13:53:06;21.70;79.40
67901;DHT22;54700;51.796;10.956;2023-10-13T13:55:35;21.70;80.20
67901;DHT22;54700;51.796;10.956;2023-10-13T13:58:06;21.80;80.30
67901;DHT22;54700;51.796;10.956;2023-10-13T14:00:36;21.80;79.70
67901;DHT22;54700;51.796;10.956;2023-10-13T14:03:08;21.80;78.60
67901;DHT22;54700;51.796;10.956;2023-10-13T14:05:40;21.90;78.90
67901;DHT22;54700;51.796;10.956;2023-10-13T14:08:07;21.80;78.70
67901;DHT22;54700;51.796;10.956;2023-10-13T14:10:37;21.90;78.80
67901;DHT22;54700;51.796;10.956;2023-10-13T14:13:19;21.90;78.20
67901;DHT22;54700;51.796;10.956;2023-10-13T14:15:47;21.80;78.60
67901;DHT22;54700;51.796;10.956;2023-10-13T14:18:21;21.80;78.00
67901;DHT22;54700;51.796;10.956;2023-10-13T14:20:55;21.70;78.40
67901;DHT22;54700;51.796;10.956;2023-10-13T14:23:22;21.60;78.40
67901;DHT22;54700;51.796;10.956;2023-10-13T14:25:50;21.40;79.50
67901;DHT22;54700;51.796;10.956;2023-10-13T14:28:17;21.30;79.50
67901;DHT22;54700;51.796;10.956;2023-10-13T14:30:45;21.30;79.50
67901;DHT22;54700;51.796;10.956;2023-10-13T14:33:12;21.30;80.50
67901;DHT22;54700;51.796;10.956;2023-10-13T14:35:40;21.20;80.60
67901;DHT22;54700;51.796;10.956;2023-10-13T14:38:12;21.30;80.80
67901;DHT22;54700;51.796;10.956;2023-10-13T14:40:39;21.30;79.90
67901;DHT22;54700;51.796;10.956;2023-10-13T14:43:06;21.30;80.10
67901;DHT22;54700;51.796;10.956;2023-10-13T14:45:35;21.30;80.60
67901;DHT22;54700;51.796;10.956;2023-10-13T14:48:03;21.40;79.70
67901;DHT22;54700;51.796;10.956;2023-10-13T14:50:33;21.40;79.10
67901;DHT22;54700;51.796;10.956;2023-10-13T14:53:00;21.40;79.50
67901;DHT22;54700;51.796;10.956;2023-10-13T14:55:27;21.30;79.60
67901;DHT22;54700;51.796;10.956;2023-10-13T14:58:09;21.20;80.20
67901;DHT22;54700;51.796;10.956;2023-10-13T15:00:44;21.20;79.50
67901;DHT22;54700;51.796;10.956;2023-10-13T15:03:12;21.10;80.00
67901;DHT22;54700;51.796;10.956;2023-10-13T15:05:39;21.10;79.90
67901;DHT22;54700;51.796;10.956;2023-10-13T15:08:08;21.10;79.30
67901;DHT22;54700;51.796;10.956;2023-10-13T15:10:35;21.10;79.30
67901;DHT22;54700;51.796;10.956;2023-10-13T15:13:02;21.00;79.30
67901;DHT22;54700;51.796;10.956;2023-10-13T15:15:37;21.00;80.20
67901;DHT22;54700;51.796;10.956;2023-10-13T15:18:04;20.90;80.10
67901;DHT22;54700;51.796;10.956;2023-10-13T15:20:38;20.80;79.70
67901;DHT22;54700;51.796;10.956;2023-10-13T15:23:09;20.70;80.40
67901;DHT22;54700;51.796;10.956;2023-10-13T15:25:40;20.60;80.10
67901;DHT22;54700;51.796;10.956;2023-10-13T15:28:14;20.60;80.00
67901;DHT22;54700;51.796;10.956;2023-10-13T15:30:46;20.60;79.90
67901;DHT22;54700;51.796;10.956;2023-10-13T15:33:21;20.60;79.80
67901;DHT22;54700;51.796;10.956;2023-10-13T15:35:52;20.60;80.00
67901;DHT22;54700;51.796;10.956;2023-10-13T15:38:19;20.50;80.00
67901;DHT22;54700;51.796;10.956;2023-10-13T15:40:47;20.50;80.40
67901;DHT22;54700;51.796;10.956;2023-10-13T15:43:19;20.40;80.90
67901;DHT22;54700;51.796;10.956;2023-10-13T15:45:54;20.30;80.50
67901;DHT22;54700;51.796;10.956;2023-10-13T15:48:23;20.20;81.20
67901;DHT22;54700;51.796;10.956;2023-10-13T15:50:53;20.20;80.50
67901;DHT22;54700;51.796;10.956;2023-10-13T15:53:22;20.10;81.50
67901;DHT22;54700;51.796;10.956;2023-10-13T15:55:51;20.10;81.50
67901;DHT22;54700;51.796;10.956;2023-10-13T15:58:19;20.00;81.30
67901;DHT22;54700;51.796;10.956;2023-10-13T16:00:49;20.00;81.00
67901;DHT22;54700;51.796;10.956;2023-10-13T16:03:21;20.00;81.40
67901;DHT22;54700;51.796;10.956;2023-10-13T16:05:48;20.00;82.00
67901;DHT22;54700;51.796;10.956;2023-10-13T16:08:16;20.00;81.60
67901;DHT22;54700;51.796;10.956;2023-10-13T16:10:43;20.00;81.80
67901;DHT22;54700;51.796;10.956;2023-10-13T16:13:11;19.90;81.10
67901;DHT22;54700;51.796;10.956;2023-10-13T16:15:41;20.00;81.40
67901;DHT22;54700;51.796;10.956;2023-10-13T16:18:08;19.90;81.10
67901;DHT22;54700;51.796;10.956;2023-10-13T16:20:38;20.00;81.30
67901;DHT22;54700;51.796;10.956;2023-10-13T16:23:06;19.90;80.60
67901;DHT22;54700;51.796;10.956;2023-10-13T16:25:43;19.90;80.30
67901;DHT22;54700;51.796;10.956;2023-10-13T16:28:14;19.90;80.70